sensor_id;sensor_type;location;lat;lon;timestamp;pressure;altitude;pressure_sealevel;temperature;humidity
51781;BME280;37844;57.126;24.288;2022-10-31T00:01:55;101727.06;;;9.50;100.00
51781;BME280;37844;57.126;24.288;2022-10-31T00:04:21;101728.78;;;9.51;100.00
51781;BME280;37844;57.126;24.288;2022-10-31T00:06:46;101733.94;;;9.51;100.00
51781;BME280;37844;57.126;24.288;2022-10-31T00:09:12;101727.09;;;9.51;100.00
51781;BME280;37844;57.126;24.288;2022-10-31T00:11:37;101726.34;;;9.54;100.00
51781;BME280;37844;57.126;24.288;2022-10-31T00:14:03;101734.78;;;9.50;100.00
51781;BME280;37844;57.126;24.288;2022-10-31T00:16:29;101729.78;;;9.54;100.00
51781;BME280;37844;57.126;24.288;2022-10-31T00:18:57;101734.25;;;9.60;100.00
51781;BME280;37844;57.126;24.288;2022-10-31T00:21:23;101735.78;;;9.55;100.00
51781;BME280;37844;57.126;24.288;2022-10-31T00:23:49;101735.78;;;9.55;100.00
51781;BME280;37844;57.126;24.288;2022-10-31T00:26:15;101732.38;;;9.56;100.00
51781;BME280;37844;57.126;24.288;2022-10-31T00:28:41;101740.22;;;9.59;100.00
51781;BME280;37844;57.126;24.288;2022-10-31T00:31:08;101740.31;;;9.62;100.00
51781;BME280;37844;57.126;24.288;2022-10-31T00:33:35;101741.31;;;9.66;100.00
51781;BME280;37844;57.126;24.288;2022-10-31T00:36:03;101741.25;;;9.64;100.00
51781;BME280;37844;57.126;24.288;2022-10-31T00:38:29;101739.59;;;9.66;100.00
51781;BME280;37844;57.126;24.288;2022-10-31T00:40:54;101751.47;;;9.61;100.00
51781;BME280;37844;57.126;24.288;2022-10-31T00:43:20;101750.72;;;9.65;100.00
51781;BME280;37844;57.126;24.288;2022-10-31T00:45:46;101750.84;;;9.68;100.00
51781;BME280;37844;57.126;24.288;2022-10-31T00:48:11;101744.75;;;9.66;100.00
51781;BME280;37844;57.126;24.288;2022-10-31T00:50:37;101746.72;;;9.75;100.00
51781;BME280;37844;57.126;24.288;2022-10-31T00:53:03;101751.84;;;9.73;100.00
51781;BME280;37844;57.126;24.288;2022-10-31T00:55:29;101744.28;;;9.78;100.00
51781;BME280;37844;57.126;24.288;2022-10-31T00:57:54;101752.03;;;9.80;100.00
51781;BME280;37844;57.126;24.288;2022-10-31T01:00:20;101751.94;;;9.76;100.00
51781;BME280;37844;57.126;24.288;2022-10-31T01:02:45;101763.16;;;9.79;100.00
51781;BME280;37844;57.126;24.288;2022-10-31T01:05:11;101754.66;;;9.81;100.00
51781;BME280;37844;57.126;24.288;2022-10-31T01:07:38;101751.88;;;9.75;100.00
51781;BME280;37844;57.126;24.288;2022-10-31T01:10:05;101750.38;;;9.82;100.00
51781;BME280;37844;57.126;24.288;2022-10-31T01:12:39;101763.31;;;9.83;100.00
51781;BME280;37844;57.126;24.288;2022-10-31T01:15:05;101758.97;;;9.82;100.00
51781;BME280;37844;57.126;24.288;2022-10-31T01:17:31;101752.97;;;9.82;100.00
51781;BME280;37844;57.126;24.288;2022-10-31T01:19:57;101760.59;;;9.79;100.00
51781;BME280;37844;57.126;24.288;2022-10-31T01:22:22;101758.97;;;9.82;100.00
51781;BME280;37844;57.126;24.288;2022-10-31T01:24:48;101765.91;;;9.83;100.00
51781;BME280;37844;57.126;24.288;2022-10-31T01:27:13;101765.91;;;9.83;100.00
51781;BME280;37844;57.126;24.288;2022-10-31T01:29:39;101764.19;;;9.84;100.00
51781;BME280;37844;57.126;24.288;2022-10-31T01:32:04;101761.75;;;9.88;100.00
51781;BME280;37844;57.126;24.288;2022-10-31T01:34:30;101765.06;;;9.84;100.00
51781;BME280;37844;57.126;24.288;2022-10-31T01:36:55;101761.56;;;9.82;100.00
51781;BME280;37844;57.126;24.288;2022-10-31T01:39:20;101761.81;;;9.90;100.00
51781;BME280;37844;57.126;24.288;2022-10-31T01:41:49;101765.06;;;9.84;100.00
51781;BME280;37844;57.126;24.288;2022-10-31T01:46:45;101759.03;;;9.84;100.00
51781;BME280;37844;57.126;24.288;2022-10-31T01:51:49;101766.91;;;9.88;100.00
51781;BME280;37844;57.126;24.288;2022-10-31T01:54:18;101758.16;;;9.83;100.00
51781;BME280;37844;57.126;24.288;2022-10-31T01:56:48;101768.78;;;9.92;100.00
51781;BME280;37844;57.126;24.288;2022-10-31T01:59:18;101774.69;;;9.90;100.00
51781;BME280;37844;57.126;24.288;2022-10-31T02:01:45;101772.94;;;9.89;100.00
51781;BME280;37844;57.126;24.288;2022-10-31T02:04:11;101779.88;;;9.91;100.00
51781;BME280;37844;57.126;24.288;2022-10-31T02:07:09;101772.94;;;9.89;100.00
51781;BME280;37844;57.126;24.288;2022-10-31T02:09:34;101778.06;;;9.87;100.00
51781;BME280;37844;57.126;24.288;2022-10-31T02:12:00;101786.03;;;9.95;100.00
51781;BME280;37844;57.126;24.288;2022-10-31T02:14:27;101780.72;;;9.90;100.00
51781;BME280;37844;57.126;24.288;2022-10-31T02:16:54;101784.22;;;9.92;100.00
51781;BME280;37844;57.126;24.288;2022-10-31T02:30:27;101791.19;;;9.96;100.00
51781;BME280;37844;57.126;24.288;2022-10-31T02:38:10;101797.25;;;9.97;100.00
51781;BME280;37844;57.126;24.288;2022-10-31T02:41:04;101810.13;;;9.97;100.00
51781;BME280;37844;57.126;24.288;2022-10-31T02:43:48;101801.63;;;10.00;100.00
51781;BME280;37844;57.126;24.288;2022-10-31T02:46:27;101809.38;;;10.01;100.00
51781;BME280;37844;57.126;24.288;2022-10-31T02:49:02;101811.22;;;10.04;100.00
51781;BME280;37844;57.126;24.288;2022-10-31T02:51:30;101811.09;;;10.01;100.00
51781;BME280;37844;57.126;24.288;2022-10-31T02:53:56;101816.25;;;10.01;100.00
51781;BME280;37844;57.126;24.288;2022-10-31T02:56:21;101812.84;;;10.02;100.00
51781;BME280;37844;57.126;24.288;2022-10-31T02:58:59;101816.09;;;9.96;100.00
51781;BME280;37844;57.126;24.288;2022-10-31T03:06:49;101817.72;;;9.94;100.00
51781;BME280;37844;57.126;24.288;2022-10-31T03:09:30;101819.34;;;9.90;100.00
51781;BME280;37844;57.126;24.288;2022-10-31T03:12:20;101823.81;;;9.96;100.00
51781;BME280;37844;57.126;24.288;2022-10-31T03:17:37;101827.16;;;9.93;100.00
51781;BME280;37844;57.126;24.288;2022-10-31T03:20:06;101820.44;;;9.97;100.00
51781;BME280;37844;57.126;24.288;2022-10-31T03:22:42;101824.75;;;9.98;100.00
51781;BME280;37844;57.126;24.288;2022-10-31T03:25:08;101821.00;;;9.88;100.00
51781;BME280;37844;57.126;24.288;2022-10-31T03:27:36;101827.00;;;9.89;100.00
51781;BME280;37844;57.126;24.288;2022-10-31T03:30:04;101823.63;;;9.90;100.00
51781;BME280;37844;57.126;24.288;2022-10-31T03:32:46;101823.63;;;9.90;100.00
51781;BME280;37844;57.126;24.288;2022-10-31T03:35:16;101825.31;;;9.89;100.00
51781;BME280;37844;57.126;24.288;2022-10-31T03:37:43;101835.72;;;9.92;100.00
51781;BME280;37844;57.126;24.288;2022-10-31T03:40:10;101837.56;;;9.96;100.00
51781;BME280;37844;57.126;24.288;2022-10-31T03:42:41;101837.63;;;9.98;100.00
51781;BME280;37844;57.126;24.288;2022-10-31T03:45:14;101842.78;;;9.98;100.00
51781;BME280;37844;57.126;24.288;2022-10-31T03:47:43;101840.91;;;9.94;100.00
51781;BME280;37844;57.126;24.288;2022-10-31T03:50:10;101847.75;;;9.92;100.00
51781;BME280;37844;57.126;24.288;2022-10-31T03:52:47;101844.84;;;9.83;100.00
51781;BME280;37844;57.126;24.288;2022-10-31T03:55:24;101845.78;;;9.85;100.00
51781;BME280;37844;57.126;24.288;2022-10-31T03:58:08;101849.09;;;9.82;100.00
51781;BME280;37844;57.126;24.288;2022-10-31T04:00:35;101844.16;;;9.88;100.00
51781;BME280;37844;57.126;24.288;2022-10-31T04:03:09;101842.31;;;9.84;100.00
51781;BME280;37844;57.126;24.288;2022-10-31T04:05:37;101839.78;;;9.86;100.00
51781;BME280;37844;57.126;24.288;2022-10-31T04:08:07;101843.09;;;9.82;100.00
51781;BME280;37844;57.126;24.288;2022-10-31T04:10:36;101834.50;;;9.81;100.00
51781;BME280;37844;57.126;24.288;2022-10-31T04:13:11;101835.34;;;9.82;100.00
51781;BME280;37844;57.126;24.288;2022-10-31T04:15:38;101844.06;;;9.85;100.00
51781;BME280;37844;57.126;24.288;2022-10-31T04:18:05;101839.69;;;9.83;100.00
51781;BME280;37844;57.126;24.288;2022-10-31T04:20:36;101837.69;;;9.74;100.00
51781;BME280;37844;57.126;24.288;2022-10-31T04:23:20;101841.84;;;9.70;100.00
51781;BME280;37844;57.126;24.288;2022-10-31T04:25:45;101855.38;;;9.65;100.00
51781;BME280;37844;57.126;24.288;2022-10-31T04:28:11;101852.81;;;9.65;100.00
51781;BME280;37844;57.126;24.288;2022-10-31T04:30:36;101851.69;;;9.57;100.00
51781;BME280;37844;57.126;24.288;2022-10-31T04:33:08;101854.78;;;9.72;100.00
51781;BME280;37844;57.126;24.288;2022-10-31T04:35:34;101853.66;;;9.64;100.00
51781;BME280;37844;57.126;24.288;2022-10-31T04:37:59;101858.22;;;9.47;100.00
51781;BME280;37844;57.126;24.288;2022-10-31T04:40:25;101849.56;;;9.45;100.00
51781;BME280;37844;57.126;24.288;2022-10-31T04:42:50;101861.25;;;9.37;100.00
51781;BME280;37844;57.126;24.288;2022-10-31T04:45:16;101859.34;;;9.31;100.00
51781;BME280;37844;57.126;24.288;2022-10-31T04:47:41;101859.63;;;9.39;100.00
51781;BME280;37844;57.126;24.288;2022-10-31T04:50:07;101863.97;;;9.40;100.00
51781;BME280;37844;57.126;24.288;2022-10-31T04:52:32;101862.91;;;9.34;100.00
51781;BME280;37844;57.126;24.288;2022-10-31T04:54:58;101875.38;;;9.24;100.00
51781;BME280;37844;57.126;24.288;2022-10-31T04:57:23;101873.84;;;9.29;100.00
51781;BME280;37844;57.126;24.288;2022-10-31T04:59:48;101872.56;;;9.40;100.00
51781;BME280;37844;57.126;24.288;2022-10-31T05:02:14;101869.41;;;9.49;100.00
51781;BME280;37844;57.126;24.288;2022-10-31T05:04:39;101873.59;;;9.45;100.00
51781;BME280;37844;57.126;24.288;2022-10-31T05:07:05;101874.03;;;9.33;100.00
51781;BME280;37844;57.126;24.288;2022-10-31T05:09:30;101879.41;;;9.40;100.00
51781;BME280;37844;57.126;24.288;2022-10-31T05:11:56;101870.00;;;9.42;100.00
51781;BME280;37844;57.126;24.288;2022-10-31T05:14:21;101878.16;;;9.06;100.00
51781;BME280;37844;57.126;24.288;2022-10-31T05:16:46;101872.41;;;9.13;100.00
51781;BME280;37844;57.126;24.288;2022-10-31T05:19:12;101875.97;;;9.17;100.00
51781;BME280;37844;57.126;24.288;2022-10-31T05:21:37;101879.78;;;9.04;100.00
51781;BME280;37844;57.126;24.288;2022-10-31T05:24:03;101890.16;;;8.83;100.00
51781;BME280;37844;57.126;24.288;2022-10-31T05:26:28;101888.75;;;8.68;100.00
51781;BME280;37844;57.126;24.288;2022-10-31T05:29:00;101883.56;;;8.46;100.00
51781;BME280;37844;57.126;24.288;2022-10-31T05:31:26;101886.88;;;8.43;100.00
51781;BME280;37844;57.126;24.288;2022-10-31T05:33:51;101888.59;;;8.43;100.00
51781;BME280;37844;57.126;24.288;2022-10-31T05:36:16;101894.25;;;8.36;100.00
51781;BME280;37844;57.126;24.288;2022-10-31T05:38:42;101905.16;;;8.30;100.00
51781;BME280;37844;57.126;24.288;2022-10-31T05:41:07;101910.47;;;8.14;100.00
51781;BME280;37844;57.126;24.288;2022-10-31T05:43:34;101907.53;;;8.04;100.00
51781;BME280;37844;57.126;24.288;2022-10-31T05:45:59;101912.00;;;7.89;100.00
51781;BME280;37844;57.126;24.288;2022-10-31T05:48:25;101906.06;;;7.90;100.00
51781;BME280;37844;57.126;24.288;2022-10-31T05:50:50;101907.66;;;8.07;100.00
51781;BME280;37844;57.126;24.288;2022-10-31T05:53:16;101906.91;;;8.10;100.00
51781;BME280;37844;57.126;24.288;2022-10-31T05:55:42;101910.09;;;8.45;100.00
51781;BME280;37844;57.126;24.288;2022-10-31T05:58:08;101916.66;;;8.59;100.00
51781;BME280;37844;57.126;24.288;2022-10-31T06:00:33;101912.97;;;8.75;100.00
51781;BME280;37844;57.126;24.288;2022-10-31T06:03:04;101917.72;;;8.87;100.00
51781;BME280;37844;57.126;24.288;2022-10-31T06:05:30;101925.53;;;8.46;100.00
51781;BME280;37844;57.126;24.288;2022-10-31T06:07:56;101920.44;;;8.27;100.00
51781;BME280;37844;57.126;24.288;2022-10-31T06:10:22;101921.47;;;8.31;100.00
51781;BME280;37844;57.126;24.288;2022-10-31T06:12:48;101926.63;;;8.32;100.00
51781;BME280;37844;57.126;24.288;2022-10-31T06:15:14;101931.47;;;8.24;100.00
51781;BME280;37844;57.126;24.288;2022-10-31T06:17:40;101932.91;;;8.39;100.00
51781;BME280;37844;57.126;24.288;2022-10-31T06:20:06;101941.03;;;8.48;100.00
51781;BME280;37844;57.126;24.288;2022-10-31T06:22:31;101931.31;;;8.41;100.00
51781;BME280;37844;57.126;24.288;2022-10-31T06:24:57;101927.31;;;8.47;100.00
51781;BME280;37844;57.126;24.288;2022-10-31T06:27:23;101928.59;;;8.59;100.00
51781;BME280;37844;57.126;24.288;2022-10-31T06:29:49;101936.50;;;8.63;100.00
51781;BME280;37844;57.126;24.288;2022-10-31T06:32:15;101935.44;;;8.58;100.00
51781;BME280;37844;57.126;24.288;2022-10-31T06:34:41;101936.25;;;8.57;100.00
51781;BME280;37844;57.126;24.288;2022-10-31T06:37:08;101940.38;;;8.75;100.00
51781;BME280;37844;57.126;24.288;2022-10-31T06:39:34;101941.22;;;8.53;100.00
51781;BME280;37844;57.126;24.288;2022-10-31T06:41:59;101944.53;;;8.71;100.00
51781;BME280;37844;57.126;24.288;2022-10-31T06:44:24;101961.25;;;8.82;100.00
51781;BME280;37844;57.126;24.288;2022-10-31T06:46:50;101961.09;;;9.00;100.00
51781;BME280;37844;57.126;24.288;2022-10-31T06:49:15;101968.88;;;9.02;100.00
51781;BME280;37844;57.126;24.288;2022-10-31T06:51:41;101966.97;;;9.19;100.00
51781;BME280;37844;57.126;24.288;2022-10-31T06:54:07;101965.38;;;9.22;100.00
51781;BME280;37844;57.126;24.288;2022-10-31T06:56:32;101976.25;;;9.38;100.00
51781;BME280;37844;57.126;24.288;2022-10-31T06:58:57;101981.31;;;9.59;100.00
51781;BME280;37844;57.126;24.288;2022-10-31T07:01:23;101979.06;;;9.68;100.00
51781;BME280;37844;57.126;24.288;2022-10-31T07:03:48;101982.03;;;9.79;100.00
51781;BME280;37844;57.126;24.288;2022-10-31T07:06:14;101986.94;;;9.96;100.00
51781;BME280;37844;57.126;24.288;2022-10-31T07:08:39;101986.72;;;10.14;100.00
51781;BME280;37844;57.126;24.288;2022-10-31T07:11:05;101989.13;;;10.32;100.00
51781;BME280;37844;57.126;24.288;2022-10-31T07:13:30;101990.28;;;10.42;100.00
51781;BME280;37844;57.126;24.288;2022-10-31T07:16:00;101987.75;;;10.44;100.00
51781;BME280;37844;57.126;24.288;2022-10-31T07:18:26;101990.84;;;10.59;100.00
51781;BME280;37844;57.126;24.288;2022-10-31T07:20:52;101983.72;;;10.77;100.00
51781;BME280;37844;57.126;24.288;2022-10-31T07:23:18;101986.72;;;10.91;100.00
51781;BME280;37844;57.126;24.288;2022-10-31T07:25:44;101988.28;;;10.86;100.00
51781;BME280;37844;57.126;24.288;2022-10-31T07:28:10;101981.97;;;11.03;100.00
51781;BME280;37844;57.126;24.288;2022-10-31T07:30:37;101986.66;;;11.17;100.00
51781;BME280;37844;57.126;24.288;2022-10-31T07:33:03;101982.34;;;11.17;100.00
51781;BME280;37844;57.126;24.288;2022-10-31T07:35:30;101989.31;;;11.20;100.00
51781;BME280;37844;57.126;24.288;2022-10-31T07:37:56;101995.53;;;11.27;100.00
51781;BME280;37844;57.126;24.288;2022-10-31T07:40:23;101992.56;;;11.41;100.00
51781;BME280;37844;57.126;24.288;2022-10-31T07:42:51;101998.34;;;11.63;100.00
51781;BME280;37844;57.126;24.288;2022-10-31T07:45:19;101995.41;;;11.81;100.00
51781;BME280;37844;57.126;24.288;2022-10-31T07:50:13;102003.81;;;12.04;100.00
51781;BME280;37844;57.126;24.288;2022-10-31T07:52:39;101999.09;;;12.21;99.05
51781;BME280;37844;57.126;24.288;2022-10-31T07:55:06;102002.97;;;12.37;98.60
51781;BME280;37844;57.126;24.288;2022-10-31T07:57:31;101999.91;;;12.51;98.02
51781;BME280;37844;57.126;24.288;2022-10-31T07:59:57;101994.28;;;12.68;96.63
51781;BME280;37844;57.126;24.288;2022-10-31T08:02:23;101994.34;;;12.71;95.97
51781;BME280;37844;57.126;24.288;2022-10-31T08:04:49;102005.44;;;12.67;95.63
51781;BME280;37844;57.126;24.288;2022-10-31T08:07:14;102005.56;;;12.37;94.61
51781;BME280;37844;57.126;24.288;2022-10-31T08:09:40;102009.09;;;12.75;95.51
51781;BME280;37844;57.126;24.288;2022-10-31T08:12:05;102010.31;;;12.89;95.55
51781;BME280;37844;57.126;24.288;2022-10-31T08:14:34;102014.53;;;13.24;95.05
51781;BME280;37844;57.126;24.288;2022-10-31T08:16:59;102016.13;;;13.55;94.40
51781;BME280;37844;57.126;24.288;2022-10-31T08:19:25;102021.81;;;13.79;93.66
51781;BME280;37844;57.126;24.288;2022-10-31T08:21:51;102021.13;;;13.90;91.96
51781;BME280;37844;57.126;24.288;2022-10-31T08:24:17;102026.09;;;14.23;90.91
51781;BME280;37844;57.126;24.288;2022-10-31T08:26:42;102021.38;;;14.48;89.93
51781;BME280;37844;57.126;24.288;2022-10-31T08:29:08;102009.03;;;14.86;88.17
51781;BME280;37844;57.126;24.288;2022-10-31T08:31:33;102015.59;;;15.20;86.66
51781;BME280;37844;57.126;24.288;2022-10-31T08:33:59;102019.47;;;15.50;84.40
51781;BME280;37844;57.126;24.288;2022-10-31T08:36:24;102026.28;;;15.42;82.96
51781;BME280;37844;57.126;24.288;2022-10-31T08:38:50;102020.53;;;15.66;81.03
51781;BME280;37844;57.126;24.288;2022-10-31T08:41:15;102023.78;;;15.48;80.13
51781;BME280;37844;57.126;24.288;2022-10-31T08:43:41;102023.25;;;15.72;79.24
51781;BME280;37844;57.126;24.288;2022-10-31T08:46:06;102016.75;;;16.09;78.92
51781;BME280;37844;57.126;24.288;2022-10-31T08:48:32;102018.56;;;16.17;77.50
51781;BME280;37844;57.126;24.288;2022-10-31T08:50:59;102027.41;;;16.37;76.08
51781;BME280;37844;57.126;24.288;2022-10-31T08:53:25;102027.50;;;16.45;75.15
51781;BME280;37844;57.126;24.288;2022-10-31T08:55:54;102032.59;;;16.34;74.33
51781;BME280;37844;57.126;24.288;2022-10-31T08:58:20;102029.38;;;15.77;73.97
51781;BME280;37844;57.126;24.288;2022-10-31T09:00:48;102034.31;;;15.57;74.30
51781;BME280;37844;57.126;24.288;2022-10-31T09:03:20;102036.88;;;15.54;74.28
51781;BME280;37844;57.126;24.288;2022-10-31T09:05:46;102033.19;;;15.38;74.25
51781;BME280;37844;57.126;24.288;2022-10-31T09:08:12;102032.78;;;15.11;75.11
51781;BME280;37844;57.126;24.288;2022-10-31T09:10:38;102037.00;;;15.04;75.61
51781;BME280;37844;57.126;24.288;2022-10-31T09:13:12;102037.59;;;14.86;75.96
51781;BME280;37844;57.126;24.288;2022-10-31T09:15:39;102039.53;;;14.99;76.21
51781;BME280;37844;57.126;24.288;2022-10-31T09:18:06;102037.38;;;15.30;76.22
51781;BME280;37844;57.126;24.288;2022-10-31T09:20:33;102042.44;;;15.21;74.65
51781;BME280;37844;57.126;24.288;2022-10-31T09:23:06;102045.22;;;15.32;75.91
51781;BME280;37844;57.126;24.288;2022-10-31T09:25:33;102043.25;;;15.79;75.63
51781;BME280;37844;57.126;24.288;2022-10-31T09:28:00;102036.72;;;16.15;74.41
51781;BME280;37844;57.126;24.288;2022-10-31T09:30:28;102043.88;;;16.35;73.77
51781;BME280;37844;57.126;24.288;2022-10-31T09:32:55;102037.16;;;16.57;72.30
51781;BME280;37844;57.126;24.288;2022-10-31T09:35:21;102043.25;;;16.60;71.76
51781;BME280;37844;57.126;24.288;2022-10-31T09:37:47;102036.09;;;16.39;71.82
51781;BME280;37844;57.126;24.288;2022-10-31T09:40:12;102040.78;;;16.75;71.63
51781;BME280;37844;57.126;24.288;2022-10-31T09:43:02;102040.00;;;16.83;71.55
51781;BME280;37844;57.126;24.288;2022-10-31T09:45:44;102042.94;;;17.30;71.01
51781;BME280;37844;57.126;24.288;2022-10-31T09:51:33;102039.47;;;17.31;70.17
51781;BME280;37844;57.126;24.288;2022-10-31T09:56:37;102034.25;;;17.34;70.06
51781;BME280;37844;57.126;24.288;2022-10-31T09:59:05;102045.38;;;17.04;70.27
51781;BME280;37844;57.126;24.288;2022-10-31T10:01:49;102045.53;;;17.30;70.93
51781;BME280;37844;57.126;24.288;2022-10-31T10:10:13;102044.81;;;17.54;70.27
51781;BME280;37844;57.126;24.288;2022-10-31T10:15:36;102049.88;;;16.27;70.79
51781;BME280;37844;57.126;24.288;2022-10-31T10:18:08;102060.97;;;16.09;72.20
51781;BME280;37844;57.126;24.288;2022-10-31T10:23:22;102070.47;;;16.07;74.61
51781;BME280;37844;57.126;24.288;2022-10-31T10:25:54;102066.13;;;16.05;75.00
51781;BME280;37844;57.126;24.288;2022-10-31T10:28:30;102065.19;;;16.00;75.66
51781;BME280;37844;57.126;24.288;2022-10-31T10:31:07;102065.09;;;15.90;75.61
51781;BME280;37844;57.126;24.288;2022-10-31T10:36:06;102057.97;;;15.77;77.62
51781;BME280;37844;57.126;24.288;2022-10-31T10:41:09;102054.28;;;15.61;78.87
51781;BME280;37844;57.126;24.288;2022-10-31T10:43:38;102053.31;;;15.56;79.37
51781;BME280;37844;57.126;24.288;2022-10-31T10:54:46;102051.31;;;15.34;80.53
51781;BME280;37844;57.126;24.288;2022-10-31T10:59:53;102040.72;;;15.20;79.84
51781;BME280;37844;57.126;24.288;2022-10-31T11:02:25;102043.19;;;15.12;79.83
51781;BME280;37844;57.126;24.288;2022-10-31T11:04:53;102048.28;;;15.04;80.53
51781;BME280;37844;57.126;24.288;2022-10-31T11:07:19;102049.06;;;15.00;79.83
51781;BME280;37844;57.126;24.288;2022-10-31T11:09:45;102054.34;;;15.05;79.68
51781;BME280;37844;57.126;24.288;2022-10-31T11:12:31;102050.06;;;15.07;80.75
51781;BME280;37844;57.126;24.288;2022-10-31T11:15:17;102054.31;;;15.03;80.28
51781;BME280;37844;57.126;24.288;2022-10-31T11:17:48;102057.63;;;14.93;80.60
51781;BME280;37844;57.126;24.288;2022-10-31T11:22:45;102064.22;;;14.74;82.00
51781;BME280;37844;57.126;24.288;2022-10-31T11:25:23;102054.72;;;14.75;83.11
51781;BME280;37844;57.126;24.288;2022-10-31T11:28:03;102058.16;;;14.74;83.43
51781;BME280;37844;57.126;24.288;2022-10-31T11:30:30;102047.66;;;14.68;83.82
51781;BME280;37844;57.126;24.288;2022-10-31T11:33:00;102055.38;;;14.63;83.22
51781;BME280;37844;57.126;24.288;2022-10-31T11:35:26;102046.44;;;14.49;84.47
51781;BME280;37844;57.126;24.288;2022-10-31T11:37:54;102044.78;;;14.52;85.61
51781;BME280;37844;57.126;24.288;2022-10-31T11:40:26;102044.00;;;14.55;87.15
51781;BME280;37844;57.126;24.288;2022-10-31T11:42:55;102033.44;;;14.47;87.00
51781;BME280;37844;57.126;24.288;2022-10-31T11:47:50;102049.13;;;14.53;86.25
51781;BME280;37844;57.126;24.288;2022-10-31T11:50:25;102045.63;;;14.51;85.96
51781;BME280;37844;57.126;24.288;2022-10-31T11:52:53;102036.88;;;14.46;87.21
51781;BME280;37844;57.126;24.288;2022-10-31T11:57:56;102053.16;;;14.37;88.53
51781;BME280;37844;57.126;24.288;2022-10-31T12:00:24;102053.16;;;14.36;87.38
51781;BME280;37844;57.126;24.288;2022-10-31T12:02:50;102045.25;;;14.30;87.33
51781;BME280;37844;57.126;24.288;2022-10-31T12:05:25;102047.00;;;14.31;88.03
51781;BME280;37844;57.126;24.288;2022-10-31T12:07:56;102058.13;;;14.25;88.24
51781;BME280;37844;57.126;24.288;2022-10-31T12:10:30;102046.69;;;14.15;88.77
51781;BME280;37844;57.126;24.288;2022-10-31T12:15:34;102060.44;;;14.10;89.40
51781;BME280;37844;57.126;24.288;2022-10-31T12:21:01;102062.03;;;14.03;89.54
51781;BME280;37844;57.126;24.288;2022-10-31T12:23:58;102061.16;;;14.04;90.50
51781;BME280;37844;57.126;24.288;2022-10-31T12:59:04;102057.50;;;13.52;93.86
51781;BME280;37844;57.126;24.288;2022-10-31T13:01:38;102060.03;;;13.49;93.72
51781;BME280;37844;57.126;24.288;2022-10-31T13:04:14;102060.13;;;13.53;93.98
51781;BME280;37844;57.126;24.288;2022-10-31T13:06:50;102066.13;;;13.52;93.34
51781;BME280;37844;57.126;24.288;2022-10-31T13:09:27;102067.03;;;13.54;92.62
51781;BME280;37844;57.126;24.288;2022-10-31T13:11:58;102060.88;;;13.49;93.02
51781;BME280;37844;57.126;24.288;2022-10-31T13:14:36;102059.16;;;13.50;91.65
51781;BME280;37844;57.126;24.288;2022-10-31T13:17:04;102051.44;;;13.51;89.60
51781;BME280;37844;57.126;24.288;2022-10-31T13:19:41;102045.22;;;13.43;88.79
51781;BME280;37844;57.126;24.288;2022-10-31T13:22:18;102046.09;;;13.44;88.57
51781;BME280;37844;57.126;24.288;2022-10-31T13:25:03;102046.81;;;13.38;89.38
51781;BME280;37844;57.126;24.288;2022-10-31T13:27:54;102047.63;;;13.35;89.77
51781;BME280;37844;57.126;24.288;2022-10-31T13:30:23;102049.19;;;13.27;90.30
51781;BME280;37844;57.126;24.288;2022-10-31T13:33:07;102043.81;;;13.20;90.73
51781;BME280;37844;57.126;24.288;2022-10-31T13:35:45;102047.84;;;13.08;91.81
51781;BME280;37844;57.126;24.288;2022-10-31T13:46:42;102044.88;;;12.91;93.55
51781;BME280;37844;57.126;24.288;2022-10-31T13:54:37;102044.25;;;12.67;96.04
51781;BME280;37844;57.126;24.288;2022-10-31T13:59:38;102038.81;;;12.56;97.57
51781;BME280;37844;57.126;24.288;2022-10-31T14:02:14;102041.31;;;12.53;98.11
51781;BME280;37844;57.126;24.288;2022-10-31T14:04:47;102038.94;;;12.27;99.30
51781;BME280;37844;57.126;24.288;2022-10-31T14:07:19;102031.09;;;12.24;100.00
51781;BME280;37844;57.126;24.288;2022-10-31T14:12:34;102027.03;;;12.34;100.00
51781;BME280;37844;57.126;24.288;2022-10-31T14:15:25;102027.22;;;12.42;99.79
51781;BME280;37844;57.126;24.288;2022-10-31T14:17:59;102028.47;;;12.23;100.00
51781;BME280;37844;57.126;24.288;2022-10-31T14:22:58;102023.91;;;12.14;100.00
51781;BME280;37844;57.126;24.288;2022-10-31T14:25:35;102015.34;;;12.17;100.00
51781;BME280;37844;57.126;24.288;2022-10-31T14:28:22;102018.84;;;12.17;100.00
51781;BME280;37844;57.126;24.288;2022-10-31T14:30:58;102020.41;;;12.12;100.00
51781;BME280;37844;57.126;24.288;2022-10-31T14:33:26;102021.38;;;12.16;100.00
51781;BME280;37844;57.126;24.288;2022-10-31T14:36:18;102008.38;;;12.13;100.00
51781;BME280;37844;57.126;24.288;2022-10-31T14:38:55;102023.75;;;12.08;100.00
51781;BME280;37844;57.126;24.288;2022-10-31T14:41:42;102010.81;;;11.78;100.00
51781;BME280;37844;57.126;24.288;2022-10-31T14:47:26;102019.69;;;11.29;100.00
51781;BME280;37844;57.126;24.288;2022-10-31T14:52:50;102008.75;;;11.66;100.00
51781;BME280;37844;57.126;24.288;2022-10-31T14:55:17;102006.19;;;11.66;100.00
51781;BME280;37844;57.126;24.288;2022-10-31T14:57:51;102014.59;;;11.59;100.00
51781;BME280;37844;57.126;24.288;2022-10-31T15:00:20;102010.22;;;11.58;100.00
51781;BME280;37844;57.126;24.288;2022-10-31T15:05:16;101994.94;;;11.35;100.00
51781;BME280;37844;57.126;24.288;2022-10-31T15:07:51;102002.50;;;11.29;100.00
51781;BME280;37844;57.126;24.288;2022-10-31T15:10:26;102005.59;;;11.17;100.00